createdAt,value
2022-12-06T00:01:10.770Z,99.90
2022-12-06T00:03:40.491Z,99.90
2022-12-06T00:06:10.907Z,99.90
2022-12-06T00:08:39.788Z,99.90
2022-12-06T00:11:10.032Z,99.90
2022-12-06T00:13:40.741Z,99.90
2022-12-06T00:16:12.015Z,99.90
2022-12-06T00:18:41.679Z,99.90
2022-12-06T00:21:09.950Z,99.90
2022-12-06T00:23:39.117Z,99.90
2022-12-06T00:26:08.905Z,99.90
2022-12-06T00:28:39.442Z,99.90
2022-12-06T00:31:09.624Z,99.90
2022-12-06T00:33:38.786Z,99.90
2022-12-06T00:36:09.391Z,99.90
2022-12-06T00:38:37.567Z,99.90
2022-12-06T00:41:08.316Z,99.90
2022-12-06T00:43:37.670Z,99.90
2022-12-06T00:46:09.829Z,99.90
2022-12-06T00:48:37.994Z,99.90
2022-12-06T00:51:06.639Z,99.90
2022-12-06T00:53:34.833Z,99.90
2022-12-06T00:56:03.340Z,99.90
2022-12-06T00:58:31.686Z,99.90
2022-12-06T01:01:10.435Z,99.90
2022-12-06T01:03:38.939Z,99.90
2022-12-06T01:06:08.763Z,99.90
2022-12-06T01:08:37.858Z,99.90
2022-12-06T01:11:06.440Z,99.90
2022-12-06T01:13:35.073Z,99.90
2022-12-06T01:16:06.850Z,99.90
2022-12-06T01:18:36.777Z,99.90
2022-12-06T01:21:06.170Z,99.90
2022-12-06T01:23:34.530Z,99.90
2022-12-06T01:26:02.840Z,99.90
2022-12-06T01:28:31.410Z,99.90
2022-12-06T01:30:59.560Z,99.90
2022-12-06T01:33:27.900Z,99.90
2022-12-06T01:35:57.530Z,99.90
2022-12-06T01:38:25.418Z,99.90
2022-12-06T01:40:54.388Z,99.90
2022-12-06T01:43:38.041Z,99.90
2022-12-06T01:46:19.204Z,99.90
2022-12-06T01:48:48.737Z,99.90
2022-12-06T01:51:19.254Z,99.90
2022-12-06T01:53:49.752Z,99.90
2022-12-06T01:56:18.666Z,99.90
2022-12-06T01:58:48.030Z,99.90
2022-12-06T02:01:16.567Z,99.90
2022-12-06T02:03:47.542Z,99.90
2022-12-06T02:06:18.611Z,99.90
2022-12-06T02:08:48.109Z,99.90
2022-12-06T02:11:16.056Z,99.90
2022-12-06T02:13:44.526Z,99.90
2022-12-06T02:16:33.390Z,99.90
2022-12-06T02:19:15.580Z,99.90
2022-12-06T02:21:52.869Z,99.90
2022-12-06T02:24:50.318Z,99.90
2022-12-06T02:27:51.545Z,99.90
2022-12-06T02:30:43.210Z,99.90
2022-12-06T02:33:17.125Z,99.90
2022-12-06T02:35:50.687Z,99.90
2022-12-06T02:38:25.390Z,99.90
2022-12-06T02:40:59.986Z,99.90
2022-12-06T02:43:34.125Z,99.90
2022-12-06T02:46:05.842Z,99.90
2022-12-06T02:48:35.461Z,99.90
2022-12-06T02:51:05.854Z,99.90
2022-12-06T02:53:38.127Z,99.90
2022-12-06T02:56:07.118Z,99.90
2022-12-06T02:58:36.662Z,99.90
2022-12-06T03:01:07.468Z,99.90
2022-12-06T03:04:01.744Z,99.90
2022-12-06T03:06:53.575Z,99.90
2022-12-06T03:09:42.024Z,99.90
2022-12-06T03:12:16.238Z,99.90
2022-12-06T03:14:50.606Z,99.90
2022-12-06T03:17:25.379Z,99.90
2022-12-06T03:19:59.718Z,99.90
2022-12-06T03:22:38.267Z,99.90
2022-12-06T03:25:10.588Z,99.90
2022-12-06T03:27:41.213Z,99.90
2022-12-06T03:30:12.863Z,99.90
2022-12-06T03:32:46.356Z,99.90
2022-12-06T03:35:18.893Z,99.90
2022-12-06T03:37:52.223Z,99.90
2022-12-06T03:40:22.421Z,99.90
2022-12-06T03:42:51.864Z,99.90
2022-12-06T03:45:21.776Z,99.90
2022-12-06T03:47:56.917Z,99.90
2022-12-06T03:50:31.738Z,99.90
2022-12-06T03:53:02.133Z,99.90
2022-12-06T03:55:30.355Z,99.90
2022-12-06T03:57:58.443Z,99.90
2022-12-06T04:00:26.685Z,99.90
2022-12-06T04:02:56.146Z,99.90
2022-12-06T04:05:24.467Z,99.90
2022-12-06T04:07:52.609Z,99.90
2022-12-06T04:10:20.824Z,99.90
2022-12-06T04:13:01.409Z,99.90
2022-12-06T04:15:31.455Z,99.90
2022-12-06T04:18:14.002Z,99.90
2022-12-06T04:21:02.577Z,99.90
2022-12-06T04:23:32.316Z,99.90
2022-12-06T04:26:00.492Z,99.90
2022-12-06T04:28:46.239Z,99.90
2022-12-06T04:31:32.193Z,99.90
2022-12-06T04:34:19.352Z,99.90
2022-12-06T04:37:05.802Z,99.90
2022-12-06T04:39:34.599Z,99.90
2022-12-06T04:42:20.738Z,99.90
2022-12-06T04:44:49.096Z,99.90
2022-12-06T04:47:17.235Z,99.90
2022-12-06T04:49:46.979Z,99.90
2022-12-06T04:52:15.283Z,99.90
2022-12-06T04:54:43.795Z,99.90
2022-12-06T04:57:13.806Z,99.90
2022-12-06T04:59:43.569Z,99.90
2022-12-06T05:02:14.096Z,99.90
2022-12-06T05:04:42.348Z,99.90
2022-12-06T05:07:12.129Z,99.90
2022-12-06T05:09:40.300Z,99.90
2022-12-06T05:12:08.951Z,99.90
2022-12-06T05:14:37.142Z,99.90
2022-12-06T05:17:05.223Z,99.90
2022-12-06T05:19:33.479Z,99.90
2022-12-06T05:22:01.707Z,99.90
2022-12-06T05:24:31.452Z,99.90
2022-12-06T05:26:59.577Z,99.90
2022-12-06T05:29:27.740Z,99.90
2022-12-06T05:31:56.044Z,99.90
2022-12-06T05:34:25.015Z,99.90
2022-12-06T05:36:53.296Z,99.90
2022-12-06T05:39:22.337Z,99.90
2022-12-06T05:41:51.877Z,99.90
2022-12-06T05:44:20.327Z,99.90
2022-12-06T05:46:48.760Z,99.90
2022-12-06T05:49:16.966Z,99.90
2022-12-06T05:51:45.419Z,99.90
2022-12-06T05:54:13.620Z,99.90
2022-12-06T05:56:41.848Z,99.90
2022-12-06T05:59:12.041Z,99.90
2022-12-06T06:01:40.159Z,99.90
2022-12-06T06:04:08.695Z,99.90
2022-12-06T06:06:36.870Z,99.90
2022-12-06T06:09:05.053Z,99.90
2022-12-06T06:11:33.209Z,99.90
2022-12-06T06:14:01.503Z,99.90
2022-12-06T06:16:32.758Z,99.90
2022-12-06T06:19:01.745Z,99.90
2022-12-06T06:21:30.089Z,99.90
2022-12-06T06:23:58.863Z,99.90
2022-12-06T06:26:27.198Z,99.90
2022-12-06T06:28:55.292Z,99.90
2022-12-06T06:31:23.431Z,99.90
2022-12-06T06:33:53.093Z,99.90
2022-12-06T06:36:21.012Z,99.90
2022-12-06T06:38:49.103Z,99.90
2022-12-06T06:41:17.303Z,99.90
2022-12-06T06:43:46.602Z,99.90
2022-12-06T06:46:14.844Z,99.90
2022-12-06T06:48:42.969Z,99.90
2022-12-06T06:51:14.819Z,99.90
2022-12-06T06:53:42.934Z,99.90
2022-12-06T06:56:11.209Z,99.90
2022-12-06T06:58:39.373Z,99.90
2022-12-06T07:01:09.420Z,99.90
2022-12-06T07:03:37.538Z,99.90
2022-12-06T07:06:08.822Z,99.90
2022-12-06T07:08:39.658Z,99.90
2022-12-06T07:11:07.856Z,99.90
2022-12-06T07:13:37.405Z,99.90
2022-12-06T07:16:06.187Z,99.90
2022-12-06T07:18:34.657Z,99.90
2022-12-06T07:21:05.051Z,99.90
2022-12-06T07:23:34.887Z,99.90
2022-12-06T07:26:06.213Z,99.90
2022-12-06T07:28:36.720Z,99.90
2022-12-06T07:31:12.751Z,99.90
2022-12-06T07:33:42.669Z,99.90
2022-12-06T07:36:13.711Z,99.90
2022-12-06T07:38:43.175Z,99.90
2022-12-06T07:41:31.679Z,99.90
2022-12-06T07:44:18.612Z,99.90
2022-12-06T07:46:47.893Z,99.90
2022-12-06T07:49:16.860Z,99.90
2022-12-06T07:51:45.638Z,99.90
2022-12-06T07:54:14.249Z,99.90
2022-12-06T07:56:44.402Z,99.90
2022-12-06T07:59:13.109Z,99.90
2022-12-06T08:01:41.417Z,99.90
2022-12-06T08:04:09.742Z,99.90
2022-12-06T08:06:38.667Z,99.90
2022-12-06T08:09:07.675Z,99.90
2022-12-06T08:11:36.596Z,99.90
2022-12-06T08:14:06.469Z,99.90
2022-12-06T08:16:34.727Z,99.90
2022-12-06T08:19:03.327Z,99.90
2022-12-06T08:21:31.563Z,98.60
2022-12-06T08:23:59.684Z,98.40
2022-12-06T08:26:27.849Z,98.20
2022-12-06T08:28:55.954Z,97.20
2022-12-06T08:31:26.041Z,97.30
2022-12-06T08:33:54.270Z,97.10
2022-12-06T08:36:24.549Z,96.10
2022-12-06T08:38:53.407Z,95.40
2022-12-06T08:41:40.956Z,95.80
2022-12-06T08:44:11.202Z,94.20
2022-12-06T08:46:41.347Z,94.70
2022-12-06T08:49:10.211Z,93.60
2022-12-06T08:51:38.950Z,92.20
2022-12-06T08:54:08.209Z,92.20
2022-12-06T08:56:38.307Z,90.40
2022-12-06T08:59:07.071Z,89.80
2022-12-06T09:01:38.038Z,90.60
2022-12-06T09:04:09.689Z,91.10
2022-12-06T09:06:39.834Z,89.40
2022-12-06T09:09:08.883Z,91.00
2022-12-06T09:11:37.341Z,89.90
2022-12-06T09:14:05.689Z,87.80
2022-12-06T09:16:34.110Z,90.50
2022-12-06T09:19:02.925Z,89.60
2022-12-06T09:21:34.268Z,87.80
2022-12-06T09:24:02.627Z,82.70
2022-12-06T09:26:30.858Z,79.70
2022-12-06T09:29:00.100Z,85.70
2022-12-06T09:31:28.638Z,84.90
2022-12-06T09:33:56.949Z,82.70
2022-12-06T09:36:27.742Z,85.90
2022-12-06T09:39:01.672Z,85.10
2022-12-06T09:42:17.367Z,82.30
2022-12-06T09:45:10.474Z,81.00
2022-12-06T09:47:50.532Z,75.30
2022-12-06T09:50:27.823Z,69.60
2022-12-06T09:53:08.896Z,76.50
2022-12-06T09:55:51.636Z,74.40
2022-12-06T09:58:30.528Z,70.60
2022-12-06T10:01:09.494Z,72.60
2022-12-06T10:04:12.099Z,62.40
2022-12-06T10:06:45.681Z,63.40
2022-12-06T10:09:26.599Z,68.90
2022-12-06T10:12:13.183Z,62.40
2022-12-06T10:15:00.502Z,63.60
2022-12-06T10:17:41.048Z,57.80
2022-12-06T10:20:16.155Z,55.00
2022-12-06T10:22:55.555Z,55.50
2022-12-06T10:25:27.021Z,57.30
2022-12-06T10:28:09.832Z,58.10
2022-12-06T10:30:45.709Z,55.20
2022-12-06T10:33:20.850Z,43.20
2022-12-06T10:35:54.196Z,38.30
2022-12-06T10:38:28.602Z,38.60
2022-12-06T10:41:06.341Z,24.10
2022-12-06T10:43:43.501Z,17.80
2022-12-06T10:46:35.229Z,9.90
2022-12-06T10:49:08.593Z,1.00
2022-12-06T10:51:42.991Z,1.00
2022-12-06T10:54:21.215Z,4.10
2022-12-06T10:56:52.646Z,1.00
2022-12-06T10:59:37.722Z,1.00
2022-12-06T11:02:23.690Z,1.00
2022-12-06T11:04:56.674Z,1.00
2022-12-06T11:07:29.494Z,1.00
2022-12-06T11:09:58.580Z,1.00
2022-12-06T11:12:31.656Z,1.00
2022-12-06T11:15:08.523Z,1.00
2022-12-06T11:17:42.528Z,1.00
2022-12-06T11:20:26.915Z,1.00
2022-12-06T11:23:12.246Z,1.00
2022-12-06T11:25:54.655Z,1.00
2022-12-06T11:28:35.759Z,1.00
2022-12-06T11:31:12.537Z,1.00
2022-12-06T11:33:40.874Z,1.00
2022-12-06T11:36:10.015Z,1.00
2022-12-06T11:38:41.847Z,1.00
2022-12-06T11:41:14.882Z,1.00
2022-12-06T11:43:43.577Z,1.00
2022-12-06T11:46:15.004Z,1.00
2022-12-06T11:48:44.440Z,1.00
2022-12-06T11:51:18.166Z,1.00
2022-12-06T11:54:06.072Z,1.00
2022-12-06T11:56:38.155Z,1.00
2022-12-06T11:59:26.371Z,1.00
2022-12-06T12:01:57.994Z,1.00
2022-12-06T12:04:34.439Z,1.00
2022-12-06T12:07:06.379Z,1.00
2022-12-06T12:09:37.970Z,1.00
2022-12-06T12:12:14.081Z,1.00
2022-12-06T12:14:49.538Z,1.00
2022-12-06T12:17:24.976Z,1.00
2022-12-06T12:19:58.999Z,1.00
2022-12-06T12:22:35.239Z,1.00
2022-12-06T12:25:23.349Z,1.00
2022-12-06T12:27:53.051Z,1.00
2022-12-06T12:30:25.417Z,1.00
2022-12-06T12:33:15.118Z,1.00
2022-12-06T12:35:45.665Z,1.00
2022-12-06T12:38:33.471Z,1.00
2022-12-06T12:41:05.226Z,1.00
2022-12-06T12:43:35.401Z,1.00
2022-12-06T12:46:09.081Z,1.00
2022-12-06T12:48:39.822Z,1.00
2022-12-06T12:51:23.224Z,1.00
2022-12-06T12:53:56.468Z,1.00
2022-12-06T12:56:24.900Z,1.00
2022-12-06T12:58:55.842Z,1.00
2022-12-06T13:01:34.507Z,1.00
2022-12-06T13:04:13.619Z,1.00
2022-12-06T13:06:49.499Z,1.00
2022-12-06T13:09:25.373Z,1.00
2022-12-06T13:11:57.813Z,1.00
2022-12-06T13:14:28.134Z,1.00
2022-12-06T13:16:58.893Z,1.00
2022-12-06T13:19:35.606Z,1.00
2022-12-06T13:22:05.974Z,1.00
2022-12-06T13:24:37.513Z,1.00
2022-12-06T13:27:14.204Z,1.00
2022-12-06T13:29:46.562Z,1.00
2022-12-06T13:32:17.499Z,1.00
2022-12-06T13:34:51.606Z,1.00
2022-12-06T13:37:29.435Z,1.00
2022-12-06T13:39:58.366Z,1.00
2022-12-06T13:42:45.534Z,1.00
2022-12-06T13:45:39.003Z,1.00
2022-12-06T13:48:45.804Z,1.00
2022-12-06T13:51:47.611Z,1.00
2022-12-06T13:54:37.073Z,1.00
2022-12-06T13:57:23.752Z,1.00
2022-12-06T13:59:52.655Z,1.00
2022-12-06T14:02:54.258Z,1.00
2022-12-06T14:08:33.315Z,1.00
2022-12-06T14:11:19.455Z,1.00
2022-12-06T14:13:49.902Z,1.00
2022-12-06T14:16:23.915Z,1.00
2022-12-06T14:18:54.651Z,1.00
2022-12-06T14:21:26.966Z,1.00
2022-12-06T14:23:56.621Z,1.00
2022-12-06T14:26:27.107Z,1.00
2022-12-06T14:28:57.511Z,1.00
2022-12-06T14:31:29.730Z,1.00
2022-12-06T14:33:58.815Z,1.00
2022-12-06T14:36:30.334Z,1.00
2022-12-06T14:39:07.506Z,1.00
2022-12-06T14:41:55.668Z,1.00
2022-12-06T14:44:30.529Z,1.00
2022-12-06T14:46:59.563Z,1.00
2022-12-06T14:49:47.397Z,1.00
2022-12-06T14:52:24.728Z,1.00
2022-12-06T14:55:14.348Z,1.00
2022-12-06T14:57:46.650Z,1.00
2022-12-06T15:00:25.800Z,1.00
2022-12-06T15:03:22.835Z,1.00
2022-12-06T15:05:57.494Z,1.00
2022-12-06T15:08:34.224Z,1.00
2022-12-06T15:11:06.058Z,1.00
2022-12-06T15:13:33.591Z,1.30
2022-12-06T15:16:13.944Z,1.00
2022-12-06T15:18:45.905Z,1.00
2022-12-06T15:21:15.702Z,1.00
2022-12-06T15:23:49.616Z,1.00
2022-12-06T15:26:21.896Z,1.00
2022-12-06T15:28:51.425Z,1.00
2022-12-06T15:31:21.021Z,1.00
2022-12-06T15:33:49.290Z,8.00
2022-12-06T15:36:19.128Z,8.30
2022-12-06T15:38:47.343Z,8.10
2022-12-06T15:41:19.553Z,11.00
2022-12-06T15:43:48.691Z,16.60
2022-12-06T15:46:20.553Z,15.90
2022-12-06T15:48:48.834Z,18.40
2022-12-06T15:51:20.866Z,24.60
2022-12-06T15:53:50.676Z,25.80
2022-12-06T15:56:22.489Z,27.30
2022-12-06T15:58:52.015Z,29.20
2022-12-06T16:01:21.122Z,26.20
2022-12-06T16:03:49.800Z,23.70
2022-12-06T16:06:21.721Z,29.00
2022-12-06T16:08:50.020Z,31.90
2022-12-06T16:11:21.506Z,33.90
2022-12-06T16:13:50.679Z,34.90
2022-12-06T16:16:20.440Z,36.20
2022-12-06T16:18:49.255Z,43.30
2022-12-06T16:21:21.753Z,47.20
2022-12-06T16:24:17.454Z,49.80
2022-12-06T16:26:47.799Z,51.70
2022-12-06T16:29:17.736Z,53.60
2022-12-06T16:31:46.597Z,56.30
2022-12-06T16:34:15.611Z,56.50
2022-12-06T16:37:01.522Z,57.80
2022-12-06T16:39:31.423Z,60.60
2022-12-06T16:42:01.180Z,61.70
2022-12-06T16:44:29.718Z,63.30
2022-12-06T16:46:58.170Z,64.50
2022-12-06T16:49:46.499Z,66.10
2022-12-06T16:52:15.444Z,65.90
2022-12-06T16:54:44.037Z,69.60
2022-12-06T16:57:14.738Z,68.40
2022-12-06T16:59:43.383Z,67.70
2022-12-06T17:02:26.538Z,72.90
2022-12-06T17:04:55.032Z,71.40
2022-12-06T17:07:23.595Z,75.00
2022-12-06T17:09:51.800Z,68.10
2022-12-06T17:12:21.740Z,67.30
2022-12-06T17:14:49.904Z,63.70
2022-12-06T17:17:21.368Z,60.90
2022-12-06T17:19:50.652Z,61.30
2022-12-06T17:22:19.871Z,60.80
2022-12-06T17:24:48.216Z,56.70
2022-12-06T17:27:18.412Z,55.40
2022-12-06T17:29:47.986Z,53.70
2022-12-06T17:32:16.182Z,52.30
2022-12-06T17:34:44.326Z,51.40
2022-12-06T17:37:12.460Z,49.60
2022-12-06T17:39:40.835Z,49.10
2022-12-06T17:42:26.438Z,47.80
2022-12-06T17:44:56.171Z,49.70
2022-12-06T17:47:24.405Z,47.90
2022-12-06T17:49:52.761Z,48.60
2022-12-06T17:52:20.913Z,44.20
2022-12-06T17:54:49.156Z,47.10
2022-12-06T17:57:18.711Z,47.10
2022-12-06T17:59:48.509Z,45.10
2022-12-06T18:02:20.204Z,43.70
2022-12-06T18:04:48.806Z,45.00
2022-12-06T18:07:18.281Z,46.80
2022-12-06T18:09:46.733Z,48.30
2022-12-06T18:12:16.268Z,51.00
2022-12-06T18:14:44.692Z,50.80
2022-12-06T18:17:13.122Z,54.00
2022-12-06T18:19:46.665Z,51.80
2022-12-06T18:22:15.493Z,51.80
2022-12-06T18:24:44.826Z,54.40
2022-12-06T18:27:13.448Z,57.10
2022-12-06T18:29:41.643Z,58.80
2022-12-06T18:32:10.117Z,61.00
2022-12-06T18:34:38.429Z,61.60
2022-12-06T18:37:07.912Z,60.20
2022-12-06T18:39:36.168Z,61.80
2022-12-06T18:42:04.325Z,60.70
2022-12-06T18:44:32.501Z,58.30
2022-12-06T18:47:00.677Z,57.20
2022-12-06T18:49:29.070Z,56.10
2022-12-06T18:51:57.145Z,52.40
2022-12-06T18:54:28.207Z,55.30
2022-12-06T18:56:58.330Z,54.30
2022-12-06T18:59:28.006Z,55.00
2022-12-06T19:01:56.877Z,57.20
2022-12-06T19:04:25.174Z,53.40
2022-12-06T19:06:54.463Z,48.40
2022-12-06T19:09:23.574Z,49.10
2022-12-06T19:11:53.138Z,46.90
2022-12-06T19:14:23.027Z,47.40
2022-12-06T19:16:52.647Z,51.50
2022-12-06T19:19:21.521Z,56.40
2022-12-06T19:21:51.106Z,58.00
2022-12-06T19:24:21.647Z,58.60
2022-12-06T19:26:53.385Z,56.90
2022-12-06T19:29:22.129Z,60.70
2022-12-06T19:31:50.725Z,59.90
2022-12-06T19:34:20.539Z,56.40
2022-12-06T19:36:50.371Z,57.90
2022-12-06T19:39:19.425Z,60.20
2022-12-06T19:42:05.367Z,56.00
2022-12-06T19:44:35.437Z,63.10
2022-12-06T19:47:03.669Z,70.80
2022-12-06T19:49:31.798Z,78.40
2022-12-06T19:51:59.916Z,81.20
2022-12-06T19:54:30.197Z,82.70
2022-12-06T19:56:59.848Z,83.50
2022-12-06T19:59:29.932Z,85.40
2022-12-06T20:01:59.781Z,87.40
2022-12-06T20:04:29.784Z,89.20
2022-12-06T20:06:58.582Z,91.20
2022-12-06T20:09:29.146Z,90.90
2022-12-06T20:12:02.113Z,91.50
2022-12-06T20:14:31.823Z,91.90
2022-12-06T20:17:01.557Z,92.90
2022-12-06T20:19:30.424Z,93.10
2022-12-06T20:21:58.605Z,93.20
2022-12-06T20:24:27.022Z,93.40
2022-12-06T20:26:56.786Z,93.20
2022-12-06T20:29:27.020Z,93.50
2022-12-06T20:31:58.017Z,93.30
2022-12-06T20:34:29.503Z,93.50
2022-12-06T20:36:57.887Z,94.00
2022-12-06T20:39:28.657Z,94.50
2022-12-06T20:41:57.012Z,94.80
2022-12-06T20:44:25.179Z,95.70
2022-12-06T20:46:54.274Z,95.40
2022-12-06T20:49:22.461Z,96.00
2022-12-06T20:51:53.663Z,96.00
2022-12-06T20:54:23.034Z,96.00
2022-12-06T20:56:53.446Z,96.40
2022-12-06T20:59:22.107Z,96.40
2022-12-06T21:01:50.641Z,95.80
2022-12-06T21:04:18.907Z,95.30
2022-12-06T21:06:47.136Z,95.40
2022-12-06T21:09:17.049Z,95.30
2022-12-06T21:11:45.138Z,95.40
2022-12-06T21:14:14.854Z,96.40
2022-12-06T21:16:44.056Z,96.60
2022-12-06T21:19:14.374Z,96.40
2022-12-06T21:21:46.194Z,96.90
2022-12-06T21:24:17.498Z,96.70
2022-12-06T21:26:45.749Z,96.20
2022-12-06T21:29:16.970Z,95.60
2022-12-06T21:31:45.946Z,95.30
2022-12-06T21:34:14.384Z,95.00
2022-12-06T21:36:43.000Z,95.30
2022-12-06T21:39:12.843Z,95.10
2022-12-06T21:41:43.066Z,95.80
2022-12-06T21:44:11.210Z,95.30
2022-12-06T21:46:39.547Z,95.50
2022-12-06T21:49:08.024Z,95.10
2022-12-06T21:51:36.133Z,94.80
2022-12-06T21:54:04.566Z,94.90
2022-12-06T21:56:34.085Z,95.10
2022-12-06T21:59:03.413Z,95.40
2022-12-06T22:01:32.754Z,95.90
2022-12-06T22:04:02.307Z,95.60
2022-12-06T22:06:31.509Z,96.10
2022-12-06T22:09:01.877Z,96.30
2022-12-06T22:11:30.929Z,96.70
2022-12-06T22:13:59.970Z,96.70
2022-12-06T22:16:30.276Z,97.20
2022-12-06T22:18:58.536Z,97.60
2022-12-06T22:21:29.044Z,97.00
2022-12-06T22:23:58.560Z,96.50
2022-12-06T22:26:28.313Z,96.40
2022-12-06T22:28:57.123Z,97.00
2022-12-06T22:31:26.978Z,96.30
2022-12-06T22:33:58.564Z,96.50
2022-12-06T22:36:27.661Z,96.80
2022-12-06T22:38:57.095Z,97.10
2022-12-06T22:41:26.230Z,97.30
2022-12-06T22:43:56.441Z,97.90
2022-12-06T22:46:26.522Z,98.10
2022-12-06T22:48:57.437Z,98.30
2022-12-06T22:51:28.104Z,98.60
2022-12-06T22:53:57.949Z,98.30
2022-12-06T22:56:26.847Z,97.90
2022-12-06T22:58:55.742Z,98.40
2022-12-06T23:01:26.027Z,98.40
2022-12-06T23:03:56.847Z,98.70
2022-12-06T23:06:26.705Z,98.70
2022-12-06T23:08:55.746Z,99.00
2022-12-06T23:11:25.846Z,99.40
2022-12-06T23:13:54.834Z,99.60
2022-12-06T23:16:25.051Z,99.60
2022-12-06T23:18:53.647Z,99.60
2022-12-06T23:21:25.335Z,99.30
2022-12-06T23:23:55.785Z,98.90
2022-12-06T23:26:26.371Z,99.00
2022-12-06T23:28:55.058Z,99.10
2022-12-06T23:31:24.950Z,99.30
2022-12-06T23:33:54.653Z,99.40
2022-12-06T23:36:26.406Z,99.60
2022-12-06T23:38:55.215Z,99.70
2022-12-06T23:41:25.285Z,99.70
2022-12-06T23:43:54.776Z,99.60
2022-12-06T23:46:25.301Z,99.90
2022-12-06T23:48:53.827Z,99.90
2022-12-06T23:51:25.472Z,99.90
2022-12-06T23:53:56.932Z,99.90
2022-12-06T23:56:26.546Z,99.90
2022-12-06T23:58:54.665Z,99.90
